Time;durP1;ratioP1;P1;durP2;ratioP2;P2;SDS_P1;SDS_P2;PMS_P1;PMS_P2;Temp;Humidity;BMP_temperature;BMP_pressure;BME280_temperature;BME280_humidity;BME280_pressure;Samples;Min_cycle;Max_cycle;Signal;HPM_P1;HPM_P2
2021/09/27 00:01:25;;;;;;;5.55;1.17;;;18.70;80.50;;;;;;4955197;29;20031;-80
2021/09/27 00:03:52;;;;;;;5.75;1.33;;;18.70;80.70;;;;;;4955422;29;20046;-80
2021/09/27 00:06:18;;;;;;;3.80;1.13;;;18.70;81.10;;;;;;4956021;29;20038;-79
2021/09/27 00:08:44;;;;;;;4.18;1.10;;;18.80;80.90;;;;;;4956120;29;20038;-80
2021/09/27 00:11:18;;;;;;;5.10;1.02;;;18.70;81.10;;;;;;4954152;29;20058;-79
2021/09/27 00:13:48;;;;;;;3.88;1.20;;;18.70;80.70;;;;;;4955838;29;20074;-79
2021/09/27 00:16:14;;;;;;;3.15;1.00;;;18.70;80.90;;;;;;4955625;29;20039;-80
2021/09/27 00:18:41;;;;;;;5.85;1.20;;;18.80;81.30;;;;;;4937247;29;20086;-80
2021/09/27 00:21:09;;;;;;;4.70;1.00;;;18.80;81.20;;;;;;4937723;29;20027;-79
2021/09/27 00:23:36;;;;;;;2.90;0.82;;;18.80;81.20;;;;;;4956063;29;20039;-80
2021/09/27 00:26:04;;;;;;;5.40;1.02;;;18.80;81.50;;;;;;4955563;29;20016;-80
2021/09/27 00:28:30;;;;;;;6.28;1.42;;;18.80;81.80;;;;;;4955404;29;20023;-80
2021/09/27 00:30:55;;;;;;;4.03;1.00;;;18.80;81.10;;;;;;4955301;29;20118;-80
2021/09/27 00:33:24;;;;;;;3.35;0.80;;;18.80;81.00;;;;;;4954938;29;20047;-80
2021/09/27 00:35:50;;;;;;;3.90;0.88;;;18.80;80.90;;;;;;4955290;29;20061;-80
2021/09/27 00:38:17;;;;;;;4.50;1.00;;;18.80;81.50;;;;;;4955877;29;20035;-80
2021/09/27 00:40:47;;;;;;;5.90;1.00;;;18.80;81.20;;;;;;4955268;29;20031;-80
2021/09/27 00:43:13;;;;;;;3.95;1.10;;;18.80;80.60;;;;;;4955191;29;20035;-80
2021/09/27 00:45:46;;;;;;;2.95;0.93;;;18.80;80.70;;;;;;4954919;29;20531;-74
2021/09/27 00:48:12;;;;;;;5.10;1.43;;;18.80;81.10;;;;;;4955396;29;20027;-80
2021/09/27 00:50:42;;;;;;;2.38;0.85;;;18.80;81.50;;;;;;4938504;29;20031;-80
2021/09/27 00:53:18;;;;;;;4.43;0.80;;;18.80;81.20;;;;;;4954860;29;20034;-80
2021/09/27 00:55:44;;;;;;;3.80;1.08;;;18.80;81.00;;;;;;4954933;29;20042;-80
2021/09/27 00:58:12;;;;;;;4.80;1.05;;;18.80;81.30;;;;;;4955007;29;20098;-81
2021/09/27 01:00:38;;;;;;;4.32;1.10;;;18.90;81.30;;;;;;4954436;29;20063;-81
2021/09/27 01:03:04;;;;;;;3.42;0.85;;;18.90;81.50;;;;;;4954764;29;20123;-81
2021/09/27 01:05:31;;;;;;;3.80;1.00;;;18.80;81.20;;;;;;4955234;29;20054;-81
2021/09/27 01:08:19;;;;;;;4.53;1.02;;;18.80;81.30;;;;;;4954629;29;20042;-80
2021/09/27 01:11:20;;;;;;;3.80;1.10;;;18.80;81.10;;;;;;4934349;29;20445;-80
2021/09/27 01:14:07;;;;;;;2.10;0.80;;;18.80;81.40;;;;;;4954481;29;20031;-80
2021/09/27 01:16:32;;;;;;;7.20;1.38;;;18.80;81.40;;;;;;4954376;29;20027;-79
2021/09/27 01:19:19;;;;;;;3.65;1.05;;;18.80;81.70;;;;;;4954422;29;20038;-78
2021/09/27 01:21:50;;;;;;;3.33;0.80;;;18.90;81.60;;;;;;4954316;29;20130;-79
2021/09/27 01:24:22;;;;;;;5.05;1.08;;;18.90;81.60;;;;;;4954233;29;20031;-79
2021/09/27 01:27:23;;;;;;;4.22;0.98;;;18.90;82.40;;;;;;4930490;29;20023;-79
2021/09/27 01:30:24;;;;;;;3.08;0.90;;;18.90;81.60;;;;;;4938402;28;20095;-79
2021/09/27 01:32:55;;;;;;;3.03;1.00;;;18.90;81.50;;;;;;4856081;29;20041;-79
2021/09/27 01:35:32;;;;;;;2.70;1.30;;;18.80;81.90;;;;;;4858333;29;20186;-80
2021/09/27 01:38:11;;;;;;;3.42;1.17;;;18.80;81.70;;;;;;4857748;29;20056;-80
2021/09/27 01:40:45;;;;;;;3.35;1.05;;;18.80;82.10;;;;;;4857841;29;20037;-79
2021/09/27 01:43:27;;;;;;;3.38;1.02;;;18.80;82.10;;;;;;4857041;29;20644;-79
2021/09/27 01:45:55;;;;;;;6.22;1.58;;;18.80;82.00;;;;;;4857422;29;20042;-79
2021/09/27 01:48:41;;;;;;;4.60;1.08;;;18.80;82.70;;;;;;4857537;29;20038;-79
2021/09/27 01:51:10;;;;;;;3.30;0.90;;;18.80;82.60;;;;;;4857930;29;20029;-79
2021/09/27 01:53:45;;;;;;;2.45;1.10;;;18.80;82.60;;;;;;4858187;29;20037;-79
2021/09/27 01:56:23;;;;;;;4.72;1.33;;;18.70;82.50;;;;;;4858147;29;20063;-80
2021/09/27 01:58:52;;;;;;;4.00;1.48;;;18.80;82.30;;;;;;4857315;29;20415;-80
2021/09/27 02:01:38;;;;;;;2.95;1.00;;;18.80;82.30;;;;;;4857289;29;20041;-79
2021/09/27 02:04:23;;;;;;;2.38;0.95;;;18.80;81.90;;;;;;4844811;29;20045;-79
2021/09/27 02:06:51;;;;;;;1.95;0.90;;;18.80;82.20;;;;;;4841912;29;20065;-79
2021/09/27 02:09:22;;;;;;;3.20;1.23;;;18.80;82.40;;;;;;4907102;29;20031;-79
2021/09/27 02:11:52;;;;;;;4.28;1.08;;;18.80;82.60;;;;;;4954035;29;20039;-79
2021/09/27 02:14:48;;;;;;;3.70;1.10;;;18.80;82.40;;;;;;4948433;29;20027;-77
2021/09/27 02:17:27;;;;;;;4.85;1.30;;;18.80;82.60;;;;;;4952330;29;20035;-80
2021/09/27 02:20:22;;;;;;;4.72;1.08;;;18.80;82.40;;;;;;4953679;29;20037;-80
2021/09/27 02:23:17;;;;;;;3.03;1.08;;;18.80;82.40;;;;;;4953662;29;20043;-80
2021/09/27 02:25:44;;;;;;;4.68;1.40;;;18.80;82.30;;;;;;4953606;29;20031;-79
2021/09/27 02:28:18;;;;;;;3.92;1.00;;;18.80;82.90;;;;;;4936096;29;20365;-80
2021/09/27 02:30:48;;;;;;;3.15;1.30;;;18.80;82.70;;;;;;4953743;29;20035;-80
2021/09/27 02:33:28;;;;;;;2.30;0.90;;;18.70;82.80;;;;;;4953486;29;20027;-80
2021/09/27 02:35:57;;;;;;;3.80;1.20;;;18.70;82.80;;;;;;4953857;29;20040;-80
2021/09/27 02:38:25;;;;;;;3.63;1.17;;;18.70;82.70;;;;;;4954147;29;20015;-80
2021/09/27 02:41:06;;;;;;;4.07;1.20;;;18.70;82.80;;;;;;4953666;29;20496;-80
2021/09/27 02:43:32;;;;;;;3.45;1.27;;;18.70;82.80;;;;;;4955365;28;20039;-80
2021/09/27 02:45:59;;;;;;;3.60;1.42;;;18.70;82.80;;;;;;4957389;29;20031;-80
2021/09/27 02:48:54;;;;;;;4.30;1.40;;;18.60;83.20;;;;;;4957288;29;20035;-80
2021/09/27 02:51:20;;;;;;;2.10;1.10;;;18.60;82.60;;;;;;4944511;29;20034;-79
2021/09/27 02:53:45;;;;;;;5.40;1.63;;;18.70;84.40;;;;;;4957582;29;20035;-80
2021/09/27 02:56:34;;;;;;;6.00;1.40;;;18.60;82.60;;;;;;4957364;29;20031;-80
2021/09/27 02:59:33;;;;;;;3.42;1.10;;;18.60;83.00;;;;;;4957308;29;20612;-80
2021/09/27 03:02:21;;;;;;;3.17;1.17;;;18.60;83.20;;;;;;4938640;29;20042;-80
2021/09/27 03:05:14;;;;;;;2.40;1.10;;;18.60;82.50;;;;;;4957288;29;20465;-79
2021/09/27 03:08:13;;;;;;;4.20;1.35;;;18.60;82.50;;;;;;4957126;29;20118;-79
2021/09/27 03:11:05;;;;;;;2.75;1.17;;;18.60;82.60;;;;;;4956986;29;20035;-79
2021/09/27 03:13:40;;;;;;;4.63;1.40;;;18.50;82.80;;;;;;4957570;29;20109;-80
2021/09/27 03:16:27;;;;;;;3.75;1.25;;;18.50;83.20;;;;;;4957597;29;20050;-80
2021/09/27 03:18:59;;;;;;;2.72;1.30;;;18.50;83.10;;;;;;4955761;29;20024;-81
2021/09/27 03:21:34;;;;;;;2.67;1.08;;;18.60;82.90;;;;;;4976360;29;20039;-79
2021/09/27 03:24:41;;;;;;;4.00;1.00;;;18.60;82.70;;;;;;4959812;29;20019;-79
2021/09/27 03:27:44;;;;;;;3.22;1.23;;;18.60;82.30;;;;;;4952351;29;20035;-80
2021/09/27 03:30:21;;;;;;;2.78;1.10;;;18.60;82.40;;;;;;4925616;29;20075;-79
2021/09/27 03:32:53;;;;;;;5.35;1.58;;;18.50;82.70;;;;;;4940315;29;20058;-79
2021/09/27 03:35:40;;;;;;;3.70;1.48;;;18.60;83.00;;;;;;4954493;29;20140;-79
2021/09/27 03:38:14;;;;;;;2.22;1.00;;;18.60;82.70;;;;;;4955787;29;20039;-80
2021/09/27 03:41:03;;;;;;;4.28;1.30;;;18.60;82.80;;;;;;4955850;29;20106;-79
2021/09/27 03:43:49;;;;;;;4.30;1.17;;;18.60;82.50;;;;;;4956343;29;20027;-80
2021/09/27 03:46:28;;;;;;;3.38;1.10;;;18.60;82.50;;;;;;4849540;29;20491;-80
2021/09/27 03:49:23;;;;;;;2.63;1.10;;;18.60;83.60;;;;;;4845548;29;20077;-79
2021/09/27 03:51:58;;;;;;;2.83;1.00;;;18.60;82.80;;;;;;4856451;29;20042;-79
2021/09/27 03:54:31;;;;;;;2.38;1.33;;;18.60;82.50;;;;;;4857911;29;20045;-79
2021/09/27 03:57:02;;;;;;;2.50;1.13;;;18.60;82.70;;;;;;4860428;29;20046;-80
2021/09/27 03:59:59;;;;;;;5.78;1.20;;;18.60;82.70;;;;;;4856032;29;20041;-79
2021/09/27 04:02:45;;;;;;;4.15;1.35;;;18.60;82.20;;;;;;4858494;29;20045;-79
2021/09/27 04:05:38;;;;;;;4.15;1.63;;;18.60;82.20;;;;;;4861130;29;20037;-79
2021/09/27 04:08:15;;;;;;;2.40;1.08;;;18.60;82.00;;;;;;4855577;29;20137;-80
2021/09/27 04:11:08;;;;;;;3.08;1.20;;;18.60;82.10;;;;;;4855717;29;20061;-80
2021/09/27 04:13:44;;;;;;;2.88;1.17;;;18.60;81.60;;;;;;4848929;29;20048;-80
2021/09/27 04:16:24;;;;;;;1.75;1.00;;;18.70;81.60;;;;;;4849841;29;20038;-80
2021/09/27 04:19:20;;;;;;;3.53;1.20;;;18.70;81.60;;;;;;4856419;29;20117;-79
2021/09/27 04:22:20;;;;;;;2.47;1.10;;;18.70;81.40;;;;;;4856457;29;20045;-80
2021/09/27 04:25:01;;;;;;;3.50;1.40;;;18.70;81.30;;;;;;4938507;29;20055;-80
2021/09/27 04:27:51;;;;;;;2.30;1.35;;;18.70;81.10;;;;;;4955474;29;20078;-80
2021/09/27 04:30:48;;;;;;;2.70;1.00;;;18.70;81.10;;;;;;4942182;29;20484;-79
2021/09/27 04:33:22;;;;;;;1.65;1.20;;;18.70;81.00;;;;;;4941559;29;20114;-79
2021/09/27 04:35:50;;;;;;;2.28;1.30;;;18.70;80.90;;;;;;4955627;29;20121;-80
2021/09/27 04:38:17;;;;;;;4.72;1.63;;;18.70;81.00;;;;;;4953620;29;20080;-80
2021/09/27 04:41:04;;;;;;;3.13;1.52;;;18.70;81.00;;;;;;4938221;29;20042;-80
2021/09/27 04:43:44;;;;;;;3.08;1.45;;;18.70;80.90;;;;;;4955339;29;20074;-80
2021/09/27 04:46:21;;;;;;;2.65;1.55;;;18.60;81.50;;;;;;4955148;29;20019;-80
2021/09/27 04:49:09;;;;;;;5.70;1.70;;;18.50;82.40;;;;;;4955248;29;20127;-80
2021/09/27 04:51:48;;;;;;;2.88;1.58;;;18.30;82.60;;;;;;4955155;29;20118;-79
2021/09/27 04:54:29;;;;;;;2.72;1.55;;;18.20;83.90;;;;;;4941075;29;20203;-79
2021/09/27 04:57:25;;;;;;;2.70;1.70;;;18.10;84.20;;;;;;4937786;29;20496;-80
2021/09/27 05:00:00;;;;;;;3.28;1.65;;;18.00;85.10;;;;;;4875761;29;20067;-79
2021/09/27 05:02:49;;;;;;;2.58;1.48;;;18.00;85.40;;;;;;4873516;29;20391;-80
2021/09/27 05:05:30;;;;;;;3.65;1.70;;;17.90;86.00;;;;;;4877159;29;20052;-79
2021/09/27 05:08:04;;;;;;;4.13;1.75;;;17.80;87.00;;;;;;4866648;29;20037;-78
2021/09/27 05:10:50;;;;;;;4.35;1.40;;;17.90;87.20;;;;;;4869182;29;20048;-78
2021/09/27 05:13:28;;;;;;;4.05;1.50;;;17.80;87.00;;;;;;4872738;29;20088;-79
2021/09/27 05:15:56;;;;;;;2.90;2.03;;;17.80;87.80;;;;;;4872649;29;20105;-79
2021/09/27 05:18:59;;;;;;;3.05;1.73;;;17.80;87.10;;;;;;4874556;29;20048;-78
2021/09/27 05:21:49;;;;;;;2.72;1.70;;;17.80;86.50;;;;;;4873631;29;20097;-79
2021/09/27 05:24:23;;;;;;;4.13;1.70;;;17.90;86.90;;;;;;4859846;29;20052;-79
2021/09/27 05:27:25;;;;;;;3.53;1.58;;;17.80;87.10;;;;;;4861316;29;20032;-79
2021/09/27 05:30:22;;;;;;;3.13;1.75;;;17.90;87.40;;;;;;4876694;29;20101;-79
2021/09/27 05:32:55;;;;;;;3.03;1.67;;;17.90;87.30;;;;;;4876743;29;20036;-80
2021/09/27 05:35:24;;;;;;;3.20;1.60;;;17.90;88.00;;;;;;4875925;29;20053;-80
2021/09/27 05:37:59;;;;;;;4.97;1.80;;;17.80;88.40;;;;;;4947849;29;20047;-79
2021/09/27 05:40:32;;;;;;;3.13;1.55;;;17.80;88.30;;;;;;4953952;29;20338;-78
2021/09/27 05:43:22;;;;;;;3.00;1.60;;;17.80;88.60;;;;;;4954134;29;20079;-78
2021/09/27 05:45:53;;;;;;;2.40;1.60;;;17.80;88.50;;;;;;4953997;29;20051;-77
2021/09/27 05:48:36;;;;;;;3.42;1.85;;;17.70;90.60;;;;;;4954241;29;20118;-78
2021/09/27 05:51:04;;;;;;;3.85;1.75;;;17.50;90.10;;;;;;4953827;29;20062;-78
2021/09/27 05:53:48;;;;;;;3.72;1.77;;;17.50;90.20;;;;;;4950679;29;20029;-79
2021/09/27 05:56:50;;;;;;;3.33;1.70;;;17.50;90.00;;;;;;4937278;29;20027;-79
2021/09/27 05:59:35;;;;;;;2.40;1.60;;;17.50;90.00;;;;;;4952804;29;20050;-78
2021/09/27 06:02:27;;;;;;;3.08;1.52;;;17.50;90.00;;;;;;4953859;29;20059;-81
2021/09/27 06:05:02;;;;;;;3.00;1.60;;;17.50;89.80;;;;;;4953324;29;20106;-80
2021/09/27 06:07:56;;;;;;;4.40;1.95;;;17.50;90.10;;;;;;4953870;29;20106;-79
2021/09/27 06:10:46;;;;;;;2.40;1.75;;;17.50;90.00;;;;;;4953608;29;20055;-86
2021/09/27 06:13:21;;;;;;;3.17;1.63;;;17.50;90.80;;;;;;4953975;29;20050;-80
2021/09/27 06:16:06;;;;;;;2.15;1.30;;;17.50;90.20;;;;;;4953448;29;20075;-80
2021/09/27 06:18:56;;;;;;;1.90;1.17;;;17.50;90.40;;;;;;4855189;29;20515;-80
2021/09/27 06:21:54;;;;;;;3.60;1.33;;;17.50;90.20;;;;;;4856066;29;20064;-80
2021/09/27 06:25:07;;;;;;;2.40;1.50;;;17.50;90.00;;;;;;4856857;29;20053;-79
2021/09/27 06:27:38;;;;;;;3.55;1.27;;;17.60;90.30;;;;;;4839237;29;20075;-80
2021/09/27 06:30:27;;;;;;;3.38;1.40;;;17.60;90.50;;;;;;4858627;29;20096;-79
2021/09/27 06:33:14;;;;;;;2.88;1.30;;;17.60;90.50;;;;;;4857538;29;20030;-79
2021/09/27 06:35:42;;;;;;;2.85;1.20;;;17.60;90.20;;;;;;4854803;29;20065;-79
2021/09/27 06:38:11;;;;;;;3.40;1.23;;;17.60;90.70;;;;;;4855113;29;20086;-79
2021/09/27 06:40:40;;;;;;;1.42;0.77;;;17.60;90.80;;;;;;4851250;29;20117;-79
2021/09/27 06:43:09;;;;;;;1.92;0.77;;;17.60;90.50;;;;;;4853328;29;20068;-80
2021/09/27 06:45:36;;;;;;;2.28;0.80;;;17.70;90.50;;;;;;4854632;29;20120;-80
2021/09/27 06:48:01;;;;;;;3.50;1.20;;;17.70;90.50;;;;;;4857337;29;20064;-81
2021/09/27 06:50:28;;;;;;;2.10;0.80;;;17.70;90.60;;;;;;4852813;29;20511;-80
2021/09/27 06:52:54;;;;;;;1.05;0.60;;;17.70;90.70;;;;;;4842573;29;20071;-80
2021/09/27 06:55:19;;;;;;;2.00;0.60;;;17.70;90.40;;;;;;4889683;29;20042;-80
2021/09/27 06:57:45;;;;;;;2.33;0.73;;;17.70;90.40;;;;;;4950338;29;20413;-80
2021/09/27 07:00:13;;;;;;;3.08;0.95;;;17.70;90.30;;;;;;4945348;29;20046;-79
2021/09/27 07:02:39;;;;;;;3.40;0.70;;;17.70;90.30;;;;;;4945496;29;20036;-78
2021/09/27 07:05:07;;;;;;;2.42;0.70;;;17.80;90.40;;;;;;4941837;29;20031;-78
2021/09/27 07:07:33;;;;;;;2.15;0.68;;;17.80;90.30;;;;;;4945312;29;20032;-78
2021/09/27 07:09:58;;;;;;;2.60;0.70;;;17.80;90.40;;;;;;4943279;29;20032;-79
2021/09/27 07:12:24;;;;;;;2.45;0.75;;;17.70;90.00;;;;;;4942549;29;20031;-79
2021/09/27 07:14:50;;;;;;;1.60;0.50;;;17.70;89.80;;;;;;4942322;29;20023;-85
2021/09/27 07:17:15;;;;;;;0.90;0.45;;;17.60;89.40;;;;;;4941892;29;20078;-74
2021/09/27 07:19:42;;;;;;;2.33;0.43;;;17.50;88.90;;;;;;4943574;29;20071;-74
2021/09/27 07:22:08;;;;;;;2.78;0.88;;;17.40;88.20;;;;;;4943123;29;20529;-72
2021/09/27 07:24:34;;;;;;;1.88;0.43;;;17.30;88.30;;;;;;4946682;29;21149;-77
2021/09/27 07:27:00;;;;;;;2.17;0.45;;;17.20;88.30;;;;;;4946025;29;20027;-73
2021/09/27 07:29:26;;;;;;;1.90;0.45;;;17.10;88.40;;;;;;4940814;29;20488;-75
2021/09/27 07:31:52;;;;;;;0.93;0.22;;;17.10;88.30;;;;;;4946058;29;20035;-72
2021/09/27 07:34:18;;;;;;;2.55;0.38;;;17.00;87.90;;;;;;4946007;29;20058;-75
2021/09/27 07:36:44;;;;;;;2.13;0.28;;;16.90;87.90;;;;;;4933887;29;20407;-74
2021/09/27 07:39:10;;;;;;;1.00;0.22;;;16.90;88.60;;;;;;4944606;29;20047;-74
2021/09/27 07:41:37;;;;;;;1.92;0.32;;;16.80;88.10;;;;;;4948483;29;20130;-76
2021/09/27 07:44:04;;;;;;;1.08;0.30;;;16.90;88.60;;;;;;4942946;29;20086;-76
2021/09/27 07:46:30;;;;;;;1.33;0.30;;;17.00;88.20;;;;;;4944291;29;20031;-75
2021/09/27 07:48:56;;;;;;;2.97;0.40;;;17.30;88.50;;;;;;4946093;29;20039;-75
2021/09/27 07:51:23;;;;;;;0.82;0.15;;;17.40;87.20;;;;;;4948672;29;20032;-76
2021/09/27 07:53:49;;;;;;;1.85;0.30;;;17.40;86.20;;;;;;4945825;29;20051;-75
2021/09/27 07:56:16;;;;;;;0.43;0.20;;;17.30;85.10;;;;;;4942988;29;20500;-77
2021/09/27 07:58:42;;;;;;;1.17;0.25;;;17.30;84.90;;;;;;4944274;29;20114;-77
2021/09/27 08:01:08;;;;;;;1.48;0.30;;;17.20;85.20;;;;;;4945090;29;20162;-76
2021/09/27 08:03:34;;;;;;;0.80;0.20;;;17.20;85.00;;;;;;4929575;29;20070;-75
2021/09/27 08:05:59;;;;;;;2.00;0.30;;;17.40;85.10;;;;;;4947453;29;20059;-76
2021/09/27 08:08:25;;;;;;;1.50;0.20;;;17.40;83.40;;;;;;4942761;29;20019;-76
2021/09/27 08:10:51;;;;;;;0.90;0.20;;;17.40;83.70;;;;;;4933666;29;20036;-76
2021/09/27 08:13:17;;;;;;;0.60;0.20;;;17.80;85.70;;;;;;4869884;29;20036;-76
2021/09/27 08:15:46;;;;;;;1.30;0.35;;;17.90;82.70;;;;;;4853359;29;21398;-76
2021/09/27 08:18:13;;;;;;;0.98;0.20;;;18.00;83.30;;;;;;4909743;29;20062;-77
2021/09/27 08:20:48;;;;;;;1.42;0.40;;;18.10;82.40;;;;;;4898476;29;20430;-75
2021/09/27 08:23:14;;;;;;;0.68;0.22;;;18.50;83.00;;;;;;4913103;29;20783;-75
2021/09/27 08:25:40;;;;;;;1.20;0.30;;;18.70;77.50;;;;;;4892985;29;20027;-69
2021/09/27 08:28:09;;;;;;;1.33;0.40;;;19.00;78.90;;;;;;4927055;29;21300;-68
2021/09/27 08:30:46;;;;;;;1.48;0.30;;;19.30;79.60;;;;;;4909134;29;20055;-68
2021/09/27 08:33:12;;;;;;;1.08;0.40;;;19.60;79.40;;;;;;4907505;29;20062;-68
2021/09/27 08:35:37;;;;;;;0.90;0.20;;;20.00;79.10;;;;;;4920605;29;20027;-69
2021/09/27 08:38:05;;;;;;;2.50;0.25;;;20.20;74.40;;;;;;4915982;28;20620;-70
2021/09/27 08:40:56;;;;;;;1.38;0.30;;;20.10;75.00;;;;;;4909834;28;20481;-69
2021/09/27 08:43:37;;;;;;;0.95;0.40;;;19.90;75.40;;;;;;4903766;29;20607;-72
2021/09/27 08:46:16;;;;;;;1.90;0.40;;;19.80;75.40;;;;;;4900509;29;20190;-72
2021/09/27 08:48:50;;;;;;;2.30;0.60;;;20.10;76.40;;;;;;4947057;29;20397;-69
2021/09/27 08:51:16;;;;;;;1.48;0.40;;;20.40;74.70;;;;;;4939455;29;20030;-68
2021/09/27 08:53:48;;;;;;;3.28;0.32;;;20.80;73.50;;;;;;4953429;29;20027;-69
2021/09/27 08:56:27;;;;;;;1.00;0.40;;;21.00;72.30;;;;;;4945185;29;20106;-69
2021/09/27 08:59:31;;;;;;;2.50;0.40;;;21.30;72.10;;;;;;4944919;29;20303;-69
2021/09/27 09:02:05;;;;;;;2.67;0.40;;;21.50;71.80;;;;;;4950090;29;20047;-69
2021/09/27 09:04:42;;;;;;;2.53;0.40;;;21.90;70.80;;;;;;4952876;29;20039;-69
2021/09/27 09:07:14;;;;;;;1.38;0.40;;;22.10;69.10;;;;;;4953095;29;20055;-69
2021/09/27 09:09:52;;;;;;;1.50;0.47;;;22.20;69.40;;;;;;4953617;29;20061;-69
2021/09/27 09:12:30;;;;;;;1.00;0.40;;;22.50;66.20;;;;;;4953788;29;20023;-69
2021/09/27 09:15:28;;;;;;;1.08;0.50;;;22.80;66.80;;;;;;4952550;29;20122;-69
2021/09/27 09:18:06;;;;;;;1.58;0.60;;;22.90;67.70;;;;;;4951960;29;20098;-69
2021/09/27 09:20:59;;;;;;;2.55;0.57;;;23.00;65.90;;;;;;4949968;29;20031;-69
2021/09/27 09:23:40;;;;;;;2.70;0.70;;;22.80;66.30;;;;;;4948880;29;20072;-71
2021/09/27 09:26:10;;;;;;;1.45;0.60;;;22.60;65.00;;;;;;4952824;29;20039;-70
2021/09/27 09:28:36;;;;;;;3.17;0.60;;;22.70;64.70;;;;;;4952920;29;20167;-69
2021/09/27 09:31:15;;;;;;;3.15;0.82;;;22.80;64.40;;;;;;4953595;29;20114;-69
2021/09/27 09:33:43;;;;;;;4.93;0.68;;;23.00;66.60;;;;;;4953611;29;20051;-68
2021/09/27 09:36:16;;;;;;;2.65;0.63;;;23.40;63.40;;;;;;4952878;29;20027;-68
2021/09/27 09:38:43;;;;;;;4.20;0.65;;;23.50;62.30;;;;;;4953475;29;20098;-68
2021/09/27 09:41:10;;;;;;;1.95;0.55;;;23.50;61.00;;;;;;4953876;29;20035;-68
2021/09/27 09:43:42;;;;;;;2.03;0.70;;;23.60;59.90;;;;;;4949229;29;20500;-71
2021/09/27 09:46:28;;;;;;;1.40;0.45;;;23.20;58.60;;;;;;4944531;29;20058;-71
2021/09/27 09:49:06;;;;;;;3.20;0.50;;;23.20;59.20;;;;;;4944273;29;20031;-70
2021/09/27 09:51:56;;;;;;;2.70;0.52;;;23.50;60.60;;;;;;4926339;29;20036;-72
2021/09/27 09:54:24;;;;;;;2.90;0.50;;;24.00;62.40;;;;;;4944060;29;20495;-71
2021/09/27 09:57:19;;;;;;;2.80;0.75;;;24.20;58.20;;;;;;4944212;29;20036;-71
2021/09/27 10:00:20;;;;;;;2.53;0.80;;;24.70;61.10;;;;;;4943239;29;20504;-71
2021/09/27 10:02:51;;;;;;;3.72;0.82;;;24.90;57.70;;;;;;4927771;29;20712;-72
2021/09/27 10:05:22;;;;;;;4.43;1.02;;;25.30;53.90;;;;;;4941871;29;20519;-71
2021/09/27 10:07:57;;;;;;;2.60;0.77;;;25.10;54.00;;;;;;4944052;29;20519;-71
2021/09/27 10:10:35;;;;;;;2.63;0.73;;;25.20;53.00;;;;;;4944193;29;20443;-70
2021/09/27 10:13:07;;;;;;;2.33;1.00;;;25.10;52.70;;;;;;4943965;28;20027;-76
2021/09/27 10:15:35;;;;;;;2.58;0.88;;;25.30;53.00;;;;;;4940925;29;20507;-74
2021/09/27 10:18:03;;;;;;;2.05;0.68;;;25.00;51.50;;;;;;4936600;29;20039;-73
2021/09/27 10:20:39;;;;;;;2.60;1.00;;;24.90;53.30;;;;;;4950345;29;20031;-78
2021/09/27 10:23:11;;;;;;;3.35;1.10;;;25.40;55.00;;;;;;4949756;29;20062;-75
2021/09/27 10:25:44;;;;;;;1.95;0.60;;;26.10;53.50;;;;;;4935896;29;20045;-79
2021/09/27 10:28:16;;;;;;;1.95;1.02;;;26.70;50.00;;;;;;4947505;29;20030;-78
2021/09/27 10:30:58;;;;;;;2.57;0.60;;;27.30;52.90;;;;;;4944023;29;20062;-79
2021/09/27 10:33:28;;;;;;;2.03;0.90;;;27.60;47.70;;;;;;4951586;29;20075;-79
2021/09/27 10:36:08;;;;;;;1.73;0.60;;;27.70;52.70;;;;;;4952648;29;20035;-69
2021/09/27 10:38:48;;;;;;;2.90;0.60;;;27.70;46.30;;;;;;4949433;29;20023;-73
2021/09/27 10:41:36;;;;;;;2.35;0.60;;;26.80;47.40;;;;;;4952637;29;20373;-75
2021/09/27 10:44:12;;;;;;;2.75;0.70;;;26.00;48.20;;;;;;4951096;29;20090;-74
2021/09/27 10:46:41;;;;;;;1.90;0.73;;;25.80;47.00;;;;;;4942473;29;20031;-74
2021/09/27 10:49:26;;;;;;;3.60;0.70;;;25.30;48.30;;;;;;4942144;29;20070;-74
2021/09/27 10:51:56;;;;;;;2.50;0.93;;;24.90;49.90;;;;;;4949880;29;20488;-72
2021/09/27 10:54:44;;;;;;;1.80;0.63;;;25.00;47.00;;;;;;4950032;28;20019;-74
2021/09/27 10:57:20;;;;;;;2.55;0.70;;;24.80;49.40;;;;;;4922316;29;20039;-74
2021/09/27 10:59:55;;;;;;;2.90;0.65;;;25.00;47.20;;;;;;4952206;29;20065;-73
2021/09/27 11:02:27;;;;;;;3.97;0.70;;;24.80;46.70;;;;;;4951689;29;20035;-69
2021/09/27 11:05:15;;;;;;;7.18;2.20;;;24.40;47.20;;;;;;4952723;29;20031;-71
2021/09/27 11:07:45;;;;;;;3.47;1.08;;;24.90;49.60;;;;;;4955086;28;20114;-69
2021/09/27 11:10:20;;;;;;;2.95;0.70;;;25.40;44.90;;;;;;4935573;29;20063;-68
2021/09/27 11:12:49;;;;;;;2.20;0.60;;;25.10;45.90;;;;;;4955577;29;20083;-68
2021/09/27 11:15:23;;;;;;;1.27;0.60;;;25.70;46.00;;;;;;4953740;28;20081;-69
2021/09/27 11:18:12;;;;;;;2.92;0.60;;;26.40;46.30;;;;;;4955585;28;20023;-70
2021/09/27 11:20:50;;;;;;;2.20;0.60;;;26.60;45.50;;;;;;4952728;29;20085;-72
2021/09/27 11:23:24;;;;;;;3.28;0.60;;;27.10;45.70;;;;;;4954246;29;20041;-72
2021/09/27 11:26:05;;;;;;;0.90;0.60;;;27.80;42.00;;;;;;4952093;29;20126;-72
2021/09/27 11:28:53;;;;;;;1.35;0.50;;;28.50;43.20;;;;;;4953059;29;20031;-72
2021/09/27 11:31:27;;;;;;;3.22;0.65;;;28.70;40.90;;;;;;4948777;29;20031;-72
2021/09/27 11:34:17;;;;;;;3.22;2.35;;;28.40;36.80;;;;;;4932933;29;20050;-72
2021/09/27 11:36:45;;;;;;;1.88;0.93;;;27.40;37.50;;;;;;4949394;29;20219;-72
2021/09/27 11:39:11;;;;;;;1.50;0.63;;;26.70;39.60;;;;;;4946044;29;20031;-72
2021/09/27 11:41:38;;;;;;;2.25;0.68;;;27.00;39.60;;;;;;4948251;29;20085;-72
2021/09/27 11:44:26;;;;;;;2.00;0.80;;;26.90;38.10;;;;;;4949221;29;20043;-71
2021/09/27 11:47:09;;;;;;;2.92;0.80;;;26.60;39.20;;;;;;4949102;29;20023;-72
2021/09/27 11:50:02;;;;;;;1.95;0.60;;;26.40;40.70;;;;;;4946804;29;20123;-71
2021/09/27 11:52:27;;;;;;;3.72;1.30;;;26.20;42.10;;;;;;4948268;29;20038;-71
2021/09/27 11:55:09;;;;;;;1.65;0.93;;;26.60;38.80;;;;;;4948143;29;20031;-71
2021/09/27 11:57:37;;;;;;;1.60;0.52;;;26.00;39.20;;;;;;4948694;29;20098;-71
2021/09/27 12:00:06;;;;;;;1.38;0.60;;;25.60;38.70;;;;;;4921337;29;20035;-71
2021/09/27 12:02:57;;;;;;;2.35;0.70;;;25.70;40.90;;;;;;4855152;29;20035;-72
2021/09/27 12:05:37;;;;;;;1.55;0.60;;;25.30;39.50;;;;;;4872031;29;20158;-71
2021/09/27 12:08:11;;;;;;;2.65;0.82;;;24.70;40.40;;;;;;4899439;29;20403;-71
2021/09/27 12:10:59;;;;;;;1.73;0.60;;;25.10;41.70;;;;;;4949051;29;20036;-71
2021/09/27 12:13:47;;;;;;;2.47;0.82;;;26.10;42.80;;;;;;4931530;29;20448;-73
2021/09/27 12:16:53;;;;;;;3.10;0.70;;;27.10;39.20;;;;;;4946658;28;20082;-73
2021/09/27 12:19:25;;;;;;;2.58;1.08;;;28.00;40.90;;;;;;4943614;29;20047;-73
2021/09/27 12:22:05;;;;;;;2.22;0.70;;;27.30;36.10;;;;;;4948829;29;20063;-72
2021/09/27 12:24:38;;;;;;;2.25;0.70;;;27.40;37.70;;;;;;4945234;29;20047;-72
2021/09/27 12:27:11;;;;;;;1.70;0.60;;;27.80;37.10;;;;;;4943858;29;20111;-72
2021/09/27 12:30:09;;;;;;;1.70;1.20;;;27.80;36.00;;;;;;4947840;29;20032;-72
2021/09/27 12:32:42;;;;;;;1.85;0.70;;;28.20;37.90;;;;;;4948363;29;20067;-72
2021/09/27 12:35:31;;;;;;;2.20;1.10;;;29.00;34.60;;;;;;4933753;29;20035;-72
2021/09/27 12:37:59;;;;;;;2.00;0.73;;;29.50;35.10;;;;;;4951546;29;20042;-72
2021/09/27 12:40:48;;;;;;;2.42;0.70;;;30.00;33.30;;;;;;4949335;29;20015;-72
2021/09/27 12:43:18;;;;;;;1.92;0.77;;;28.80;31.30;;;;;;4944530;29;20046;-72
2021/09/27 12:45:51;;;;;;;3.72;0.80;;;28.30;34.60;;;;;;4951682;29;20396;-72
2021/09/27 12:48:37;;;;;;;2.53;0.75;;;28.80;34.40;;;;;;4951756;28;20070;-72
2021/09/27 12:51:19;;;;;;;1.50;0.77;;;29.80;36.10;;;;;;4947854;29;20075;-72
2021/09/27 12:54:16;;;;;;;0.98;0.50;;;29.50;32.80;;;;;;4951812;29;20496;-72
2021/09/27 12:56:42;;;;;;;2.47;0.80;;;28.80;31.90;;;;;;4951485;29;20110;-72
2021/09/27 12:59:15;;;;;;;3.78;1.08;;;27.90;32.00;;;;;;4952149;29;20050;-72
2021/09/27 13:01:52;;;;;;;1.73;0.57;;;28.00;34.00;;;;;;4948869;29;20028;-73
2021/09/27 13:04:33;;;;;;;1.58;0.50;;;27.80;33.90;;;;;;4948269;29;20086;-73
2021/09/27 13:07:06;;;;;;;2.95;0.80;;;27.40;34.00;;;;;;4950519;29;20063;-73
2021/09/27 13:09:37;;;;;;;1.45;0.60;;;26.50;34.20;;;;;;4952742;29;20031;-73
2021/09/27 13:12:40;;;;;;;1.15;0.40;;;25.70;34.60;;;;;;4952984;28;20511;-73
2021/09/27 13:15:06;;;;;;;1.58;0.50;;;25.20;37.20;;;;;;4938063;29;20496;-73
2021/09/27 13:17:33;;;;;;;1.73;0.60;;;25.10;37.30;;;;;;4950588;29;20024;-73
2021/09/27 13:20:20;;;;;;;2.38;0.70;;;24.70;37.20;;;;;;4951705;29;20037;-73
2021/09/27 13:22:46;;;;;;;2.58;0.52;;;24.40;37.90;;;;;;4936524;29;20046;-72
2021/09/27 13:25:31;;;;;;;1.40;0.60;;;24.20;38.40;;;;;;4952783;28;20034;-73
2021/09/27 13:28:40;;;;;;;2.78;0.55;;;24.00;39.60;;;;;;4954122;28;20031;-73
2021/09/27 13:31:20;;;;;;;2.45;0.60;;;23.90;40.00;;;;;;4949491;29;20058;-73
2021/09/27 13:33:47;;;;;;;2.97;0.70;;;23.70;40.70;;;;;;4954347;29;20086;-73
2021/09/27 13:36:44;;;;;;;1.63;0.60;;;23.50;39.70;;;;;;4954042;29;20546;-72
2021/09/27 13:39:13;;;;;;;1.75;0.60;;;23.30;41.00;;;;;;4922466;29;20023;-72